createdAt,value
2023-04-21T00:00:52.662Z,80.33
2023-04-21T00:01:52.626Z,80.43
2023-04-21T00:02:53.138Z,80.43
2023-04-21T00:03:52.806Z,80.54
2023-04-21T00:04:52.751Z,80.64
2023-04-21T00:05:52.761Z,80.78
2023-04-21T00:06:52.565Z,80.88
2023-04-21T00:07:52.583Z,80.98
2023-04-21T00:08:52.651Z,80.98
2023-04-21T00:09:52.572Z,81.09
2023-04-21T00:10:52.542Z,81.18
2023-04-21T00:11:52.511Z,81.29
2023-04-21T00:12:52.517Z,81.29
2023-04-21T00:13:52.575Z,81.39
2023-04-21T00:14:52.545Z,81.39
2023-04-21T00:15:52.512Z,81.59
2023-04-21T00:16:52.517Z,81.59
2023-04-21T00:17:52.522Z,81.59
2023-04-21T00:18:52.695Z,81.73
2023-04-21T00:19:52.470Z,81.84
2023-04-21T00:20:52.405Z,81.84
2023-04-21T00:21:52.434Z,81.94
2023-04-21T00:22:52.494Z,81.94
2023-04-21T00:23:52.383Z,82.04
2023-04-21T00:24:52.382Z,82.04
2023-04-21T00:25:52.454Z,82.04
2023-04-21T00:26:52.468Z,82.04
2023-04-21T00:27:52.390Z,82.14
2023-04-21T00:28:52.332Z,81.94
2023-04-21T00:29:52.350Z,82.04
2023-04-21T00:30:52.416Z,81.94
2023-04-21T00:31:52.360Z,81.87
2023-04-21T00:32:52.437Z,81.84
2023-04-21T00:33:52.325Z,81.63
2023-04-21T00:34:52.315Z,81.73
2023-04-21T00:35:52.325Z,81.73
2023-04-21T00:36:52.328Z,81.63
2023-04-21T00:37:52.284Z,81.53
2023-04-21T00:38:52.228Z,81.43
2023-04-21T00:39:52.282Z,81.23
2023-04-21T00:40:52.226Z,81.12
2023-04-21T00:41:52.214Z,80.91
2023-04-21T00:42:52.240Z,80.82
2023-04-21T00:43:52.259Z,80.82
2023-04-21T00:44:52.210Z,80.82
2023-04-21T00:45:52.170Z,80.91
2023-04-21T00:46:52.193Z,80.91
2023-04-21T00:47:52.331Z,80.96
2023-04-21T00:48:52.172Z,80.96
2023-04-21T00:49:52.155Z,80.75
2023-04-21T00:50:52.111Z,80.55
2023-04-21T00:51:52.163Z,80.41
2023-04-21T00:52:52.081Z,80.10
2023-04-21T00:53:52.132Z,80.10
2023-04-21T00:54:52.086Z,80.10
2023-04-21T00:55:52.242Z,80.00
2023-04-21T00:56:52.100Z,80.10
2023-04-21T00:57:52.149Z,80.34
2023-04-21T00:58:52.033Z,80.24
2023-04-21T00:59:52.039Z,80.24
2023-04-21T01:00:52.041Z,80.24
2023-04-21T01:01:52.103Z,80.24
2023-04-21T01:02:52.135Z,80.24
2023-04-21T01:03:52.070Z,80.24
2023-04-21T01:04:51.973Z,80.14
2023-04-21T01:05:51.977Z,79.93
2023-04-21T01:06:52.129Z,79.93
2023-04-21T01:07:51.992Z,79.73
2023-04-21T01:08:51.944Z,79.63
2023-04-21T01:09:51.925Z,79.43
2023-04-21T01:10:51.878Z,79.02
2023-04-21T01:11:51.969Z,78.81
2023-04-21T01:12:52.006Z,78.81
2023-04-21T01:13:51.880Z,78.91
2023-04-21T01:14:51.894Z,78.71
2023-04-21T01:15:51.885Z,78.50
2023-04-21T01:16:51.900Z,78.30
2023-04-21T01:17:51.846Z,78.20
2023-04-21T01:18:51.962Z,78.00
2023-04-21T01:19:51.860Z,78.09
2023-04-21T01:20:51.832Z,78.20
2023-04-21T01:21:51.784Z,78.30
2023-04-21T01:22:51.836Z,78.41
2023-04-21T01:23:51.746Z,78.61
2023-04-21T01:24:51.809Z,78.71
2023-04-21T01:25:51.805Z,78.85
2023-04-21T01:26:51.770Z,78.85
2023-04-21T01:27:51.732Z,78.85
2023-04-21T01:28:51.732Z,78.95
2023-04-21T01:29:51.724Z,78.95
2023-04-21T01:30:51.757Z,78.64
2023-04-21T01:31:51.848Z,78.75
2023-04-21T01:32:51.807Z,78.64
2023-04-21T01:33:51.662Z,78.64
2023-04-21T01:34:51.648Z,78.64
2023-04-21T01:35:51.828Z,78.75
2023-04-21T01:36:51.690Z,78.64
2023-04-21T01:37:51.657Z,78.64
2023-04-21T01:38:51.606Z,78.34
2023-04-21T01:39:52.059Z,78.34
2023-04-21T01:40:51.689Z,78.23
2023-04-21T01:41:51.593Z,78.23
2023-04-21T01:42:51.580Z,78.23
2023-04-21T01:43:51.564Z,78.03
2023-04-21T01:44:51.556Z,77.93
2023-04-21T01:45:51.614Z,77.83
2023-04-21T01:46:51.543Z,77.72
2023-04-21T01:47:51.585Z,77.62
2023-04-21T01:48:51.522Z,77.83
2023-04-21T01:49:51.535Z,77.62
2023-04-21T01:50:52.433Z,77.52
2023-04-21T01:51:51.649Z,77.62
2023-04-21T01:52:51.473Z,77.83
2023-04-21T01:53:51.433Z,77.72
2023-04-21T01:54:51.458Z,77.72
2023-04-21T01:55:51.498Z,77.72
2023-04-21T01:56:51.521Z,77.72
2023-04-21T01:57:51.461Z,77.72
2023-04-21T01:58:51.383Z,77.62
2023-04-21T01:59:51.423Z,77.52
2023-04-21T02:00:51.445Z,77.42
2023-04-21T02:01:51.503Z,77.42
2023-04-21T02:02:51.480Z,77.52
2023-04-21T02:03:51.605Z,77.62
2023-04-21T02:04:51.367Z,77.72
2023-04-21T02:05:51.379Z,77.42
2023-04-21T02:06:51.343Z,77.42
2023-04-21T02:07:51.321Z,77.62
2023-04-21T02:08:51.299Z,77.52
2023-04-21T02:09:51.270Z,77.52
2023-04-21T02:10:51.307Z,77.56
2023-04-21T02:11:51.299Z,77.56
2023-04-21T02:12:51.278Z,77.45
2023-04-21T02:13:51.262Z,77.22
2023-04-21T02:14:51.305Z,77.31
2023-04-21T02:15:59.544Z,77.11
2023-04-21T02:16:52.373Z,77.25
2023-04-21T02:17:51.340Z,77.25
2023-04-21T02:18:51.650Z,77.22
2023-04-21T02:19:51.257Z,77.25
2023-04-21T02:20:51.173Z,77.04
2023-04-21T02:21:51.156Z,77.04
2023-04-21T02:22:51.221Z,77.15
2023-04-21T02:23:51.162Z,77.04
2023-04-21T02:24:51.170Z,76.94
2023-04-21T02:25:51.141Z,76.94
2023-04-21T02:26:51.100Z,76.64
2023-04-21T02:27:51.117Z,76.74
2023-04-21T02:28:51.109Z,76.94
2023-04-21T02:29:51.066Z,76.84
2023-04-21T02:30:51.121Z,76.84
2023-04-21T02:32:01.218Z,76.84
2023-04-21T02:32:52.201Z,76.84
2023-04-21T02:33:51.036Z,76.74
2023-04-21T02:34:51.076Z,76.64
2023-04-21T02:35:51.094Z,76.53
2023-04-21T02:36:51.085Z,76.64
2023-04-21T02:37:51.051Z,76.64
2023-04-21T02:38:50.981Z,76.64
2023-04-21T02:39:51.084Z,76.74
2023-04-21T02:40:50.985Z,76.84
2023-04-21T02:41:51.025Z,76.74
2023-04-21T02:42:50.936Z,76.84
2023-04-21T02:43:51.251Z,76.98
2023-04-21T02:44:50.941Z,76.88
2023-04-21T02:45:50.931Z,76.67
2023-04-21T02:46:50.981Z,76.64
2023-04-21T02:47:50.907Z,76.53
2023-04-21T02:48:50.953Z,76.64
2023-04-21T02:49:50.968Z,76.53
2023-04-21T02:50:50.887Z,76.57
2023-04-21T02:51:50.876Z,76.67
2023-04-21T02:52:50.864Z,76.57
2023-04-21T02:53:50.872Z,76.47
2023-04-21T02:54:50.861Z,76.53
2023-04-21T02:55:50.870Z,76.57
2023-04-21T02:56:50.816Z,76.47
2023-04-21T02:57:50.785Z,76.47
2023-04-21T02:58:50.864Z,76.57
2023-04-21T02:59:50.796Z,76.57
2023-04-21T03:00:50.850Z,76.57
2023-04-21T03:01:50.731Z,76.67
2023-04-21T03:02:50.922Z,76.67
2023-04-21T03:03:50.780Z,76.67
2023-04-21T03:04:50.839Z,76.78
2023-04-21T03:05:50.685Z,76.88
2023-04-21T03:06:50.713Z,76.88
2023-04-21T03:07:50.693Z,76.88
2023-04-21T03:08:50.740Z,76.67
2023-04-21T03:09:50.681Z,76.67
2023-04-21T03:10:50.836Z,76.67
2023-04-21T03:11:50.597Z,76.57
2023-04-21T03:12:50.760Z,76.57
2023-04-21T03:13:50.732Z,76.57
2023-04-21T03:14:50.610Z,76.57
2023-04-21T03:15:50.645Z,76.57
2023-04-21T03:16:51.637Z,76.71
2023-04-21T03:17:50.717Z,76.71
2023-04-21T03:18:50.528Z,76.81
2023-04-21T03:19:50.538Z,77.01
2023-04-21T03:20:50.556Z,77.01
2023-04-21T03:21:50.543Z,77.01
2023-04-21T03:22:50.535Z,77.22
2023-04-21T03:23:50.503Z,77.22
2023-04-21T03:24:50.476Z,77.32
2023-04-21T03:25:50.481Z,77.32
2023-04-21T03:26:50.470Z,77.42
2023-04-21T03:27:50.471Z,77.63
2023-04-21T03:28:50.430Z,77.67
2023-04-21T03:29:50.431Z,77.76
2023-04-21T03:30:50.430Z,77.67
2023-04-21T03:31:50.424Z,77.67
2023-04-21T03:32:50.414Z,77.46
2023-04-21T03:33:50.463Z,77.56
2023-04-21T03:34:50.420Z,77.46
2023-04-21T03:35:50.342Z,77.56
2023-04-21T03:36:50.368Z,77.67
2023-04-21T03:37:50.352Z,77.56
2023-04-21T03:38:50.351Z,77.56
2023-04-21T03:39:50.342Z,77.67
2023-04-21T03:40:50.287Z,77.67
2023-04-21T03:41:50.292Z,77.67
2023-04-21T03:42:50.306Z,77.76
2023-04-21T03:43:50.303Z,77.67
2023-04-21T03:44:50.411Z,77.76
2023-04-21T03:45:50.438Z,77.76
2023-04-21T03:46:50.255Z,77.87
2023-04-21T03:47:50.313Z,77.87
2023-04-21T03:48:50.208Z,77.76
2023-04-21T03:49:50.872Z,77.76
2023-04-21T03:50:50.178Z,77.67
2023-04-21T03:51:50.246Z,77.56
2023-04-21T03:52:50.140Z,77.46
2023-04-21T03:53:50.199Z,77.56
2023-04-21T03:54:50.149Z,77.46
2023-04-21T03:55:50.156Z,77.67
2023-04-21T03:56:50.188Z,77.76
2023-04-21T03:57:50.135Z,77.76
2023-04-21T03:58:50.086Z,77.67
2023-04-21T03:59:50.115Z,77.67
2023-04-21T04:00:50.085Z,77.67
2023-04-21T04:01:50.194Z,77.67
2023-04-21T04:02:50.231Z,77.67
2023-04-21T04:03:50.217Z,77.76
2023-04-21T04:04:50.100Z,77.76
2023-04-21T04:05:50.040Z,78.01
2023-04-21T04:06:50.136Z,77.91
2023-04-21T04:07:50.046Z,77.87
2023-04-21T04:08:50.025Z,77.91
2023-04-21T04:09:50.016Z,77.91
2023-04-21T04:10:49.986Z,77.91
2023-04-21T04:11:50.644Z,77.91
2023-04-21T04:12:49.969Z,77.87
2023-04-21T04:13:49.984Z,77.91
2023-04-21T04:14:50.128Z,78.01
2023-04-21T04:15:49.988Z,77.91
2023-04-21T04:16:49.953Z,78.01
2023-04-21T04:17:49.966Z,78.01
2023-04-21T04:18:49.911Z,77.91
2023-04-21T04:19:49.944Z,77.91
2023-04-21T04:20:49.980Z,77.91
2023-04-21T04:21:49.848Z,77.80
2023-04-21T04:22:49.868Z,77.70
2023-04-21T04:23:49.886Z,77.80
2023-04-21T04:24:49.817Z,77.80
2023-04-21T04:25:49.830Z,77.70
2023-04-21T04:26:49.916Z,77.80
2023-04-21T04:27:49.920Z,77.80
2023-04-21T04:28:51.832Z,77.91
2023-04-21T04:29:49.791Z,77.80
2023-04-21T04:30:49.840Z,78.01
2023-04-21T04:31:50.505Z,77.91
2023-04-21T04:32:49.781Z,77.91
2023-04-21T04:33:49.784Z,78.42
2023-04-21T04:34:49.766Z,77.70
2023-04-21T04:35:49.728Z,77.80
2023-04-21T04:36:49.736Z,77.80
2023-04-21T04:37:49.731Z,77.91
2023-04-21T04:38:49.718Z,77.91
2023-04-21T04:39:49.697Z,77.91
2023-04-21T04:40:49.782Z,77.80
2023-04-21T04:41:49.689Z,77.91
2023-04-21T04:42:49.639Z,77.91
2023-04-21T04:43:49.666Z,77.80
2023-04-21T04:44:49.718Z,77.70
2023-04-21T04:45:49.630Z,77.50
2023-04-21T04:46:49.750Z,77.29
2023-04-21T04:47:49.715Z,77.50
2023-04-21T04:48:49.607Z,77.39
2023-04-21T04:49:49.594Z,77.26
2023-04-21T04:50:49.536Z,77.15
2023-04-21T04:51:49.565Z,77.15
2023-04-21T04:52:49.542Z,77.05
2023-04-21T04:53:49.527Z,77.05
2023-04-21T04:54:49.581Z,76.95
2023-04-21T04:55:49.544Z,76.75
2023-04-21T04:56:49.501Z,76.64
2023-04-21T04:57:49.649Z,76.50
2023-04-21T04:58:49.491Z,76.30
2023-04-21T04:59:49.520Z,75.89
2023-04-21T05:00:49.441Z,75.31
2023-04-21T05:01:49.722Z,74.05
2023-04-21T05:02:49.546Z,72.65
2023-04-21T05:03:49.574Z,71.29
2023-04-21T05:04:49.444Z,70.57
2023-04-21T05:05:49.472Z,70.44
2023-04-21T05:06:49.417Z,70.34
2023-04-21T05:07:49.466Z,70.14
2023-04-21T05:08:49.399Z,69.70
2023-04-21T05:09:49.381Z,68.85
2023-04-21T05:10:49.390Z,68.75
2023-04-21T05:11:49.352Z,68.34
2023-04-21T05:12:49.360Z,68.10
2023-04-21T05:13:49.334Z,67.90
2023-04-21T05:14:49.333Z,67.36
2023-04-21T05:15:49.341Z,67.16
2023-04-21T05:16:49.402Z,66.24
2023-04-21T05:17:49.465Z,66.65
2023-04-21T05:18:49.246Z,66.41
2023-04-21T05:19:49.346Z,66.31
2023-04-21T05:20:49.345Z,66.00
2023-04-21T05:21:49.365Z,66.35
2023-04-21T05:22:49.861Z,66.75
2023-04-21T05:23:49.219Z,66.65
2023-04-21T05:24:49.312Z,66.35
2023-04-21T05:25:49.268Z,66.75
2023-04-21T05:26:49.259Z,66.44
2023-04-21T05:27:49.188Z,66.61
2023-04-21T05:28:49.193Z,66.00
2023-04-21T05:29:49.213Z,65.91
2023-04-21T05:30:49.168Z,66.00
2023-04-21T05:31:49.172Z,65.50
2023-04-21T05:32:49.176Z,65.94
2023-04-21T05:33:49.171Z,66.24
2023-04-21T05:34:49.240Z,66.31
2023-04-21T05:35:49.182Z,65.70
2023-04-21T05:36:49.100Z,65.67
2023-04-21T05:37:49.182Z,65.60
2023-04-21T05:38:49.080Z,65.47
2023-04-21T05:39:49.054Z,64.32
2023-04-21T05:40:49.080Z,64.62
2023-04-21T05:41:49.140Z,64.22
2023-04-21T05:42:49.202Z,64.09
2023-04-21T05:43:49.052Z,63.58
2023-04-21T05:44:49.050Z,63.68
2023-04-21T05:45:49.087Z,62.94
2023-04-21T05:46:49.015Z,62.51
2023-04-21T05:47:49.052Z,63.04
2023-04-21T05:48:49.142Z,63.04
2023-04-21T05:49:48.983Z,63.37
2023-04-21T05:50:49.002Z,63.28
2023-04-21T05:51:48.951Z,63.37
2023-04-21T05:52:49.851Z,63.48
2023-04-21T05:53:48.987Z,63.78
2023-04-21T05:54:49.201Z,62.94
2023-04-21T05:55:48.914Z,62.84
2023-04-21T05:56:48.906Z,62.71
2023-04-21T05:57:48.867Z,62.33
2023-04-21T05:58:48.985Z,62.43
2023-04-21T05:59:48.880Z,62.76
2023-04-21T06:00:49.391Z,63.37
2023-04-21T06:01:48.806Z,62.63
2023-04-21T06:02:48.923Z,63.04
2023-04-21T06:03:49.005Z,62.20
2023-04-21T06:04:48.976Z,61.46
2023-04-21T06:05:49.932Z,61.36
2023-04-21T06:06:48.858Z,61.13
2023-04-21T06:07:48.768Z,60.52
2023-04-21T06:08:48.731Z,60.62
2023-04-21T06:09:48.745Z,60.95
2023-04-21T06:10:48.726Z,60.93
2023-04-21T06:11:48.737Z,60.52
2023-04-21T06:12:48.687Z,60.85
2023-04-21T06:13:48.777Z,61.16
2023-04-21T06:14:48.785Z,60.62
2023-04-21T06:15:48.757Z,60.28
2023-04-21T06:16:48.696Z,59.55
2023-04-21T06:17:48.671Z,59.22
2023-04-21T06:18:48.748Z,57.98
2023-04-21T06:19:48.712Z,58.20
2023-04-21T06:20:48.657Z,57.90
2023-04-21T06:21:48.719Z,58.94
2023-04-21T06:22:48.645Z,59.17
2023-04-21T06:23:48.584Z,60.01
2023-04-21T06:24:48.679Z,60.21
2023-04-21T06:25:48.608Z,60.01
2023-04-21T06:26:48.622Z,60.42
2023-04-21T06:27:48.559Z,59.88
2023-04-21T06:28:48.834Z,59.58
2023-04-21T06:29:48.621Z,59.27
2023-04-21T06:30:48.646Z,59.34
2023-04-21T06:31:48.642Z,58.71
2023-04-21T06:32:48.603Z,57.78
2023-04-21T06:33:48.560Z,57.78
2023-04-21T06:34:48.616Z,57.67
2023-04-21T06:35:48.500Z,57.87
2023-04-21T06:36:48.452Z,57.44
2023-04-21T06:37:48.474Z,57.24
2023-04-21T06:38:48.471Z,57.40
2023-04-21T06:39:48.491Z,58.34
2023-04-21T06:40:48.661Z,57.80
2023-04-21T06:41:48.493Z,57.90
2023-04-21T06:42:48.402Z,57.27
2023-04-21T06:43:48.402Z,57.50
2023-04-21T06:44:49.528Z,58.00
2023-04-21T06:45:48.381Z,57.90
2023-04-21T06:46:48.448Z,58.44
2023-04-21T06:47:48.509Z,58.00
2023-04-21T06:48:48.305Z,58.31
2023-04-21T06:49:48.325Z,58.47
2023-04-21T06:50:48.353Z,59.94
2023-04-21T06:51:48.328Z,61.41
2023-04-21T06:52:48.305Z,62.59
2023-04-21T06:53:48.365Z,63.23
2023-04-21T06:54:48.284Z,63.94
2023-04-21T06:55:48.307Z,64.15
2023-04-21T06:56:48.447Z,64.25
2023-04-21T06:57:48.301Z,64.35
2023-04-21T06:58:48.244Z,64.28
2023-04-21T06:59:48.295Z,64.58
2023-04-21T07:00:48.326Z,64.58
2023-04-21T07:01:48.233Z,64.79
2023-04-21T07:02:48.412Z,64.35
2023-04-21T07:03:48.341Z,64.45
2023-04-21T07:04:48.235Z,64.35
2023-04-21T07:05:48.168Z,64.25
2023-04-21T07:06:48.177Z,64.04
2023-04-21T07:07:48.180Z,64.04
2023-04-21T07:08:48.128Z,64.04
2023-04-21T07:09:48.228Z,64.04
2023-04-21T07:10:48.255Z,63.81
2023-04-21T07:11:48.256Z,63.51
2023-04-21T07:12:48.088Z,63.40
2023-04-21T07:13:48.117Z,63.51
2023-04-21T07:14:48.219Z,63.40
2023-04-21T07:15:48.076Z,63.17
2023-04-21T07:16:48.093Z,63.07
2023-04-21T07:17:48.128Z,62.66
2023-04-21T07:18:48.040Z,62.46
2023-04-21T07:19:48.015Z,62.76
2023-04-21T07:20:48.036Z,62.36
2023-04-21T07:21:47.997Z,62.26
2023-04-21T07:22:48.086Z,62.26
2023-04-21T07:23:48.009Z,62.16
2023-04-21T07:24:49.379Z,62.05
2023-04-21T07:25:47.998Z,62.02
2023-04-21T07:26:47.956Z,61.72
2023-04-21T07:27:47.966Z,61.93
2023-04-21T07:28:47.971Z,62.02
2023-04-21T07:29:47.929Z,61.21
2023-04-21T07:30:47.992Z,61.72
2023-04-21T07:31:47.913Z,61.41
2023-04-21T07:32:47.979Z,61.41
2023-04-21T07:33:47.935Z,61.32
2023-04-21T07:34:47.929Z,61.52
2023-04-21T07:35:48.132Z,61.29
2023-04-21T07:36:47.860Z,61.29
2023-04-21T07:37:47.828Z,61.39
2023-04-21T07:38:48.243Z,60.78
2023-04-21T07:39:47.778Z,61.29
2023-04-21T07:40:47.786Z,61.16
2023-04-21T07:41:47.789Z,60.55
2023-04-21T07:42:47.870Z,59.91
2023-04-21T07:43:47.800Z,60.04
2023-04-21T07:44:47.794Z,60.14
2023-04-21T07:45:47.859Z,59.70
2023-04-21T07:46:47.739Z,59.43
2023-04-21T07:47:49.411Z,59.50
2023-04-21T07:48:47.811Z,59.61
2023-04-21T07:49:47.821Z,59.20
2023-04-21T07:50:47.713Z,59.10
2023-04-21T07:51:47.710Z,59.00
2023-04-21T07:52:47.659Z,58.80
2023-04-21T07:53:47.659Z,58.49
2023-04-21T07:54:47.666Z,58.69
2023-04-21T07:55:47.723Z,58.76
2023-04-21T07:56:47.656Z,58.36
2023-04-21T07:57:47.641Z,58.36
2023-04-21T07:58:47.775Z,58.47
2023-04-21T07:59:47.591Z,57.93
2023-04-21T08:00:47.595Z,57.42
2023-04-21T08:01:47.662Z,56.99
2023-04-21T08:02:47.640Z,57.12
2023-04-21T08:03:47.803Z,57.42
2023-04-21T08:04:47.729Z,57.73
2023-04-21T08:05:47.781Z,57.60
2023-04-21T08:06:47.555Z,57.50
2023-04-21T08:07:47.480Z,57.50
2023-04-21T08:08:47.540Z,56.99
2023-04-21T08:09:47.529Z,57.09
2023-04-21T08:10:47.533Z,57.09
2023-04-21T08:11:47.650Z,56.89
2023-04-21T08:12:47.493Z,56.89
2023-04-21T08:13:47.446Z,56.99
2023-04-21T08:14:47.464Z,56.69
2023-04-21T08:15:47.702Z,56.79
2023-04-21T08:16:47.504Z,57.20
2023-04-21T08:17:47.498Z,56.86
2023-04-21T08:18:47.378Z,57.17
2023-04-21T08:19:47.383Z,57.37
2023-04-21T08:20:47.371Z,56.66
2023-04-21T08:21:47.340Z,56.63
2023-04-21T08:22:48.443Z,56.02
2023-04-21T08:23:47.367Z,56.02
2023-04-21T08:24:47.319Z,56.43
2023-04-21T08:25:47.323Z,57.07
2023-04-21T08:26:47.326Z,57.78
2023-04-21T08:27:47.294Z,57.57
2023-04-21T08:28:47.290Z,57.67
2023-04-21T08:29:47.340Z,57.54
2023-04-21T08:30:47.256Z,56.23
2023-04-21T08:31:47.289Z,56.23
2023-04-21T08:32:47.383Z,55.69
2023-04-21T08:34:00.581Z,55.90
2023-04-21T08:34:48.195Z,55.47
2023-04-21T08:36:02.331Z,54.86
2023-04-21T08:36:48.195Z,54.66
2023-04-21T08:37:47.255Z,54.66
2023-04-21T08:38:47.277Z,53.55
2023-04-21T08:39:47.199Z,54.25
2023-04-21T08:40:47.172Z,54.46
2023-04-21T08:41:47.134Z,54.16
2023-04-21T08:42:47.188Z,54.16
2023-04-21T08:43:47.136Z,54.05
2023-04-21T08:44:47.881Z,53.75
2023-04-21T08:45:47.181Z,53.85
2023-04-21T08:46:47.074Z,53.12
2023-04-21T08:47:47.132Z,53.25
2023-04-21T08:48:47.079Z,53.55
2023-04-21T08:49:47.062Z,53.55
2023-04-21T08:50:47.065Z,53.72
2023-04-21T08:51:47.056Z,53.72
2023-04-21T08:52:47.154Z,53.72
2023-04-21T08:53:47.054Z,53.83
2023-04-21T08:54:47.026Z,53.90
2023-04-21T08:55:53.715Z,53.20
2023-04-21T08:56:48.021Z,54.13
2023-04-21T08:57:47.050Z,54.03
2023-04-21T08:58:46.993Z,54.10
2023-04-21T08:59:47.031Z,53.60
2023-04-21T09:00:47.000Z,53.40
2023-04-21T09:01:47.124Z,52.97
2023-04-21T09:02:47.220Z,52.67
2023-04-21T09:03:47.258Z,52.44
2023-04-21T09:04:47.229Z,52.24
2023-04-21T09:05:47.185Z,52.97
2023-04-21T09:06:46.992Z,53.14
2023-04-21T09:07:46.941Z,53.75
2023-04-21T09:08:47.029Z,53.14
2023-04-21T09:09:46.881Z,53.34
2023-04-21T09:10:47.199Z,53.45
2023-04-21T09:11:46.962Z,52.24
2023-04-21T09:12:46.959Z,52.67
2023-04-21T09:13:47.102Z,53.05
2023-04-21T09:14:46.813Z,53.45
2023-04-21T09:15:46.805Z,53.65
2023-04-21T09:16:46.825Z,54.05
2023-04-21T09:17:46.948Z,54.25
2023-04-21T09:18:46.862Z,54.05
2023-04-21T09:19:46.810Z,54.25
2023-04-21T09:20:46.963Z,54.46
2023-04-21T09:21:46.740Z,53.55
2023-04-21T09:22:46.757Z,52.82
2023-04-21T09:23:46.722Z,53.32
2023-04-21T09:24:46.705Z,52.44
2023-04-21T09:25:46.719Z,53.65
2023-04-21T09:26:46.696Z,54.05
2023-04-21T09:27:46.692Z,54.05
2023-04-21T09:28:46.677Z,54.13
2023-04-21T09:29:46.653Z,54.23
2023-04-21T09:30:46.699Z,54.23
2023-04-21T09:31:46.666Z,53.92
2023-04-21T09:32:46.789Z,53.92
2023-04-21T09:33:57.887Z,53.20
2023-04-21T09:34:47.609Z,53.20
2023-04-21T09:35:46.570Z,52.77
2023-04-21T09:36:46.587Z,52.26
2023-04-21T09:37:46.625Z,51.76
2023-04-21T09:38:46.557Z,52.06
2023-04-21T09:39:57.339Z,51.97
2023-04-21T09:40:47.746Z,51.79
2023-04-21T09:41:46.611Z,52.17
2023-04-21T09:42:46.591Z,52.06
2023-04-21T09:43:46.583Z,51.97
2023-04-21T09:44:52.517Z,52.09
2023-04-21T09:45:47.540Z,52.39
2023-04-21T09:46:46.757Z,52.49
2023-04-21T09:47:46.467Z,52.59
2023-04-21T09:48:46.498Z,52.39
2023-04-21T09:49:46.454Z,52.49
2023-04-21T09:52:46.415Z,52.06
2023-04-21T09:53:48.991Z,52.14
2023-04-21T09:54:46.450Z,51.71
2023-04-21T09:55:46.495Z,51.31
2023-04-21T09:56:46.371Z,51.21
2023-04-21T09:57:46.386Z,50.81
2023-04-21T09:58:46.394Z,50.71
2023-04-21T09:59:46.596Z,50.60
2023-04-21T10:00:46.450Z,49.88
2023-04-21T10:01:46.477Z,48.77
2023-04-21T10:02:46.389Z,48.47
2023-04-21T10:03:46.475Z,48.57
2023-04-21T10:04:46.711Z,48.67
2023-04-21T10:05:46.287Z,48.44
2023-04-21T10:06:46.357Z,47.44
2023-04-21T10:07:46.259Z,47.04
2023-04-21T10:08:46.257Z,47.42
2023-04-21T10:09:46.380Z,47.72
2023-04-21T10:10:46.303Z,47.72
2023-04-21T10:11:46.261Z,47.42
2023-04-21T10:12:46.219Z,47.22
2023-04-21T10:13:46.206Z,47.02
2023-04-21T10:14:46.214Z,46.61
2023-04-21T10:15:46.204Z,45.71
2023-04-21T10:16:46.297Z,45.53
2023-04-21T10:17:46.263Z,45.43
2023-04-21T10:18:46.325Z,45.73
2023-04-21T10:19:46.553Z,45.94
2023-04-21T10:20:46.257Z,46.14
2023-04-21T10:21:46.238Z,46.03
2023-04-21T10:22:46.079Z,46.36
2023-04-21T10:23:46.161Z,46.15
2023-04-21T10:24:46.086Z,46.76
2023-04-21T10:25:46.116Z,46.66
2023-04-21T10:26:46.064Z,46.73
2023-04-21T10:27:46.072Z,46.14
2023-04-21T10:28:46.289Z,45.71
2023-04-21T10:29:56.208Z,45.21
2023-04-21T10:30:47.060Z,44.59
2023-04-21T10:31:46.070Z,44.89
2023-04-21T10:32:46.060Z,44.89
2023-04-21T10:33:46.048Z,44.40
2023-04-21T10:34:46.081Z,44.99
2023-04-21T10:35:46.052Z,44.89
2023-04-21T10:36:46.081Z,44.59
2023-04-21T10:37:46.009Z,43.90
2023-04-21T10:38:45.940Z,44.51
2023-04-21T10:39:45.978Z,44.48
2023-04-21T10:40:45.913Z,44.48
2023-04-21T10:41:45.923Z,44.48
2023-04-21T10:42:46.031Z,44.79
2023-04-21T10:43:48.432Z,44.16
2023-04-21T10:44:45.978Z,44.48
2023-04-21T10:45:46.448Z,44.60
2023-04-21T10:46:45.985Z,45.41
2023-04-21T10:47:45.897Z,45.10
2023-04-21T10:48:45.908Z,45.39
2023-04-21T10:49:45.838Z,44.87
2023-04-21T10:50:45.842Z,43.68
2023-04-21T10:51:45.832Z,45.10
2023-04-21T10:52:45.791Z,44.51
2023-04-21T10:53:45.792Z,44.79
2023-04-21T10:54:46.199Z,44.89
2023-04-21T10:55:45.798Z,44.28
2023-04-21T10:56:45.797Z,44.18
2023-04-21T10:57:45.794Z,44.59
2023-04-21T10:58:45.714Z,44.59
2023-04-21T10:59:46.012Z,44.08
2023-04-21T11:00:45.828Z,44.38
2023-04-21T11:01:45.732Z,44.18
2023-04-21T11:02:45.943Z,44.51
2023-04-21T11:03:45.919Z,44.81
2023-04-21T11:04:46.349Z,44.68
2023-04-21T11:05:45.773Z,44.68
2023-04-21T11:06:45.625Z,44.20
2023-04-21T11:07:45.636Z,44.68
2023-04-21T11:08:45.645Z,44.59
2023-04-21T11:09:45.633Z,44.59
2023-04-21T11:10:45.647Z,44.60
2023-04-21T11:11:45.624Z,44.91
2023-04-21T11:12:45.593Z,45.01
2023-04-21T11:13:45.606Z,45.18
2023-04-21T11:14:45.605Z,44.68
2023-04-21T11:15:45.518Z,45.21
2023-04-21T11:16:46.013Z,44.68
2023-04-21T11:17:45.666Z,44.18
2023-04-21T11:18:45.534Z,43.86
2023-04-21T11:19:45.546Z,43.76
2023-04-21T11:20:45.516Z,43.76
2023-04-21T11:21:45.557Z,43.66
2023-04-21T11:22:45.525Z,44.16
2023-04-21T11:23:45.535Z,44.56
2023-04-21T11:24:45.484Z,44.26
2023-04-21T11:25:45.459Z,44.36
2023-04-21T11:26:45.516Z,44.56
2023-04-21T11:27:45.415Z,44.79
2023-04-21T11:28:45.404Z,45.09
2023-04-21T11:29:45.411Z,44.67
2023-04-21T11:30:45.437Z,43.16
2023-04-21T11:31:45.631Z,44.16
2023-04-21T11:32:45.498Z,44.46
2023-04-21T11:33:45.481Z,44.46
2023-04-21T11:34:45.376Z,44.46
2023-04-21T11:35:45.350Z,44.36
2023-04-21T11:36:45.353Z,44.26
2023-04-21T11:37:45.296Z,44.14
2023-04-21T11:38:45.277Z,43.84
2023-04-21T11:39:45.272Z,43.34
2023-04-21T11:40:45.305Z,43.04
2023-04-21T11:41:45.529Z,43.06
2023-04-21T11:42:45.337Z,43.46
2023-04-21T11:43:45.293Z,43.14
2023-04-21T11:44:45.633Z,42.74
2023-04-21T11:45:45.240Z,43.04
2023-04-21T11:46:45.377Z,43.04
2023-04-21T11:47:45.234Z,43.24
2023-04-21T11:48:45.252Z,43.44
2023-04-21T11:49:45.204Z,43.84
2023-04-21T11:50:45.155Z,44.02
2023-04-21T11:51:45.183Z,42.74
2023-04-21T11:52:45.686Z,43.44
2023-04-21T11:53:45.126Z,43.64
2023-04-21T11:54:45.189Z,43.24
2023-04-21T11:55:45.147Z,42.33
2023-04-21T11:56:45.120Z,42.33
2023-04-21T11:57:45.145Z,42.41
2023-04-21T11:58:45.209Z,42.02
2023-04-21T11:59:45.134Z,41.82
2023-04-21T12:00:45.107Z,41.71
2023-04-21T12:01:45.085Z,41.99
2023-04-21T12:02:45.114Z,41.82
2023-04-21T12:03:45.116Z,42.33
2023-04-21T12:04:45.115Z,42.83
2023-04-21T12:05:45.117Z,43.02
2023-04-21T12:06:45.107Z,42.61
2023-04-21T12:07:45.064Z,42.82
2023-04-21T12:08:45.785Z,43.02
2023-04-21T12:09:45.010Z,43.14
2023-04-21T12:10:45.060Z,43.44
2023-04-21T12:11:44.980Z,43.44
2023-04-21T12:12:44.975Z,43.44
2023-04-21T12:13:44.919Z,43.24
2023-04-21T12:14:44.922Z,43.32
2023-04-21T12:15:44.959Z,43.52
2023-04-21T12:16:44.981Z,43.10
2023-04-21T12:17:44.944Z,42.19
2023-04-21T12:18:44.881Z,41.99
2023-04-21T12:19:44.863Z,41.60
2023-04-21T12:20:44.908Z,41.17
2023-04-21T12:21:44.899Z,41.38
2023-04-21T12:22:44.853Z,41.46
2023-04-21T12:23:44.853Z,41.67
2023-04-21T12:24:45.093Z,41.77
2023-04-21T12:25:44.871Z,42.27
2023-04-21T12:26:44.805Z,42.07
2023-04-21T12:27:44.760Z,42.07
2023-04-21T12:28:45.084Z,42.49
2023-04-21T12:29:44.789Z,41.61
2023-04-21T12:30:44.922Z,42.11
2023-04-21T12:31:44.751Z,43.36
2023-04-21T12:32:44.898Z,43.34
2023-04-21T12:33:44.827Z,43.12
2023-04-21T12:34:44.822Z,43.10
2023-04-21T12:35:44.746Z,43.10
2023-04-21T12:36:44.687Z,42.57
2023-04-21T12:37:44.684Z,41.97
2023-04-21T12:38:44.716Z,42.07
2023-04-21T12:39:44.677Z,42.21
2023-04-21T12:40:44.709Z,41.93
2023-04-21T12:41:44.629Z,42.41
2023-04-21T12:42:44.616Z,42.21
2023-04-21T12:43:44.639Z,41.71
2023-04-21T12:44:44.595Z,41.79
2023-04-21T12:45:44.687Z,41.49
2023-04-21T12:46:44.566Z,41.19
2023-04-21T12:47:46.860Z,41.61
2023-04-21T12:48:44.622Z,41.71
2023-04-21T12:49:44.562Z,41.60
2023-04-21T12:50:44.609Z,41.69
2023-04-21T12:51:44.572Z,41.60
2023-04-21T12:52:44.574Z,41.69
2023-04-21T12:53:44.693Z,41.79
2023-04-21T12:54:44.514Z,41.39